Time;durP1;ratioP1;P1;durP2;ratioP2;P2;SDS_P1;SDS_P2;PMS_P1;PMS_P2;Temp;Humidity;BMP_temperature;BMP_pressure;BME280_temperature;BME280_humidity;BME280_pressure;Samples;Min_cycle;Max_cycle;Signal;HPM_P1;HPM_P2
2021/10/29 00:00:16;;;;;;;32.03;19.27;;;;;;;;;;5011740;28;20182;-71
2021/10/29 00:02:41;;;;;;;29.80;18.88;;;;;;;;;;5020283;28;20681;-71
2021/10/29 00:05:08;;;;;;;30.35;17.20;;;;;;;;;;5011582;28;20375;-71
2021/10/29 00:07:34;;;;;;;32.97;19.27;;;;;;;;;;5017908;28;20205;-71
2021/10/29 00:09:59;;;;;;;30.83;18.27;;;;;;;;;;5008250;28;20230;-71
2021/10/29 00:12:26;;;;;;;35.38;18.88;;;;;;;;;;5017736;28;20190;-71
2021/10/29 00:14:51;;;;;;;32.83;17.65;;;;;;;;;;5007063;28;20193;-71
2021/10/29 00:17:18;;;;;;;32.85;19.00;;;;;;;;;;5018202;28;20182;-71
2021/10/29 00:19:43;;;;;;;30.83;19.10;;;;;;;;;;5010262;28;20189;-71
2021/10/29 00:22:09;;;;;;;31.55;18.48;;;;;;;;;;5020647;28;20181;-71
2021/10/29 00:24:35;;;;;;;29.83;17.88;;;;;;;;;;5022395;28;20336;-71
2021/10/29 00:27:00;;;;;;;29.15;17.75;;;;;;;;;;5014614;28;20214;-71
2021/10/29 00:29:25;;;;;;;29.90;17.70;;;;;;;;;;5020803;28;20687;-71
2021/10/29 00:31:51;;;;;;;28.73;17.10;;;;;;;;;;5013634;28;20655;-72
2021/10/29 00:34:16;;;;;;;26.95;16.88;;;;;;;;;;5020318;28;20667;-71
2021/10/29 00:36:42;;;;;;;28.25;17.80;;;;;;;;;;5013818;28;20189;-71
2021/10/29 00:39:08;;;;;;;28.80;17.35;;;;;;;;;;5019616;28;20645;-71
2021/10/29 00:41:34;;;;;;;26.00;16.93;;;;;;;;;;5014556;28;20194;-71
2021/10/29 00:44:00;;;;;;;29.48;17.73;;;;;;;;;;5018845;28;20191;-71
2021/10/29 00:46:26;;;;;;;29.42;16.70;;;;;;;;;;5013107;28;20214;-71
2021/10/29 00:48:52;;;;;;;27.20;16.95;;;;;;;;;;5020362;28;20582;-71
2021/10/29 00:51:19;;;;;;;25.93;16.10;;;;;;;;;;5013167;28;20178;-71
2021/10/29 00:53:45;;;;;;;32.03;18.05;;;;;;;;;;5023553;28;20737;-71
2021/10/29 00:56:11;;;;;;;28.80;17.30;;;;;;;;;;5022294;28;20278;-71
2021/10/29 00:58:37;;;;;;;28.65;17.33;;;;;;;;;;5007448;28;20665;-71
2021/10/29 01:01:03;;;;;;;29.95;17.45;;;;;;;;;;5021159;28;20182;-71
2021/10/29 01:03:29;;;;;;;29.67;17.15;;;;;;;;;;5010065;28;20241;-71
2021/10/29 01:05:54;;;;;;;28.58;16.98;;;;;;;;;;5020331;28;20707;-71
2021/10/29 01:08:19;;;;;;;26.45;16.52;;;;;;;;;;5011363;28;21376;-72
2021/10/29 01:10:47;;;;;;;27.60;16.80;;;;;;;;;;5020252;28;20309;-71
2021/10/29 01:13:12;;;;;;;25.33;16.40;;;;;;;;;;5009354;28;20197;-71
2021/10/29 01:15:37;;;;;;;25.70;15.93;;;;;;;;;;5022927;28;20194;-71
2021/10/29 01:18:03;;;;;;;28.50;17.45;;;;;;;;;;5012098;28;20182;-71
2021/10/29 01:20:28;;;;;;;26.38;16.80;;;;;;;;;;5020229;28;20780;-72
2021/10/29 01:22:54;;;;;;;30.13;16.20;;;;;;;;;;5012664;28;20204;-72
2021/10/29 01:25:19;;;;;;;30.43;17.53;;;;;;;;;;5022731;28;20640;-71
2021/10/29 01:27:45;;;;;;;27.10;16.02;;;;;;;;;;5021569;28;20194;-72
2021/10/29 01:30:12;;;;;;;26.30;16.45;;;;;;;;;;5008652;28;20320;-72
2021/10/29 01:32:38;;;;;;;30.73;16.85;;;;;;;;;;5020658;28;20194;-72
2021/10/29 01:35:05;;;;;;;25.13;16.67;;;;;;;;;;5011534;28;20194;-71
2021/10/29 01:37:30;;;;;;;30.05;16.90;;;;;;;;;;5020056;28;20234;-71
2021/10/29 01:39:56;;;;;;;26.63;16.38;;;;;;;;;;5010873;28;20198;-71
2021/10/29 01:42:21;;;;;;;25.60;15.68;;;;;;;;;;5022044;28;20187;-71
2021/10/29 01:44:47;;;;;;;29.27;15.93;;;;;;;;;;5012967;28;20636;-71
2021/10/29 01:47:12;;;;;;;26.70;16.55;;;;;;;;;;5020542;28;20221;-71
2021/10/29 01:49:39;;;;;;;28.15;15.85;;;;;;;;;;5010926;28;20587;-71
2021/10/29 01:52:06;;;;;;;30.27;16.00;;;;;;;;;;5021319;28;20185;-71
2021/10/29 01:54:32;;;;;;;29.13;16.15;;;;;;;;;;5012243;28;20276;-70
2021/10/29 01:56:58;;;;;;;28.27;16.20;;;;;;;;;;5021576;28;20717;-71
2021/10/29 01:59:24;;;;;;;29.02;16.50;;;;;;;;;;5019034;28;20186;-71
2021/10/29 02:01:50;;;;;;;29.35;16.23;;;;;;;;;;5010949;28;20672;-71
2021/10/29 02:04:15;;;;;;;25.75;15.77;;;;;;;;;;5018469;28;20199;-71
2021/10/29 02:06:40;;;;;;;28.85;15.93;;;;;;;;;;5014688;28;20230;-71
2021/10/29 02:09:06;;;;;;;25.80;15.57;;;;;;;;;;5020616;28;20230;-71
2021/10/29 02:11:32;;;;;;;27.85;16.30;;;;;;;;;;5007342;28;20212;-71
2021/10/29 02:13:57;;;;;;;24.15;15.63;;;;;;;;;;5017438;28;20240;-71
2021/10/29 02:16:23;;;;;;;24.17;14.30;;;;;;;;;;5012056;28;20190;-71
2021/10/29 02:18:48;;;;;;;25.90;15.73;;;;;;;;;;5019391;28;20549;-71
2021/10/29 02:21:13;;;;;;;27.50;15.77;;;;;;;;;;5012006;28;21963;-72
2021/10/29 02:23:39;;;;;;;26.65;15.73;;;;;;;;;;5021197;28;20699;-71
2021/10/29 02:26:04;;;;;;;25.42;14.60;;;;;;;;;;5015835;28;20296;-71
2021/10/29 02:28:30;;;;;;;23.13;15.02;;;;;;;;;;5012168;28;20276;-71
2021/10/29 02:30:55;;;;;;;24.63;14.48;;;;;;;;;;5021165;28;20676;-72
2021/10/29 02:33:20;;;;;;;25.33;14.68;;;;;;;;;;5008223;28;20190;-71
2021/10/29 02:35:46;;;;;;;24.45;14.40;;;;;;;;;;5020325;28;20273;-71
2021/10/29 02:38:12;;;;;;;29.02;15.45;;;;;;;;;;5011749;28;20193;-71
2021/10/29 02:40:38;;;;;;;25.50;13.98;;;;;;;;;;5019930;28;20182;-71
2021/10/29 02:43:04;;;;;;;27.67;14.88;;;;;;;;;;5010339;28;20244;-71
2021/10/29 02:45:29;;;;;;;22.13;14.23;;;;;;;;;;5018861;28;20301;-71
2021/10/29 02:47:54;;;;;;;26.17;14.48;;;;;;;;;;5009058;28;20285;-71
2021/10/29 02:50:21;;;;;;;23.30;14.03;;;;;;;;;;5023317;28;20209;-71
2021/10/29 02:52:47;;;;;;;22.25;13.65;;;;;;;;;;5011262;28;20259;-71
2021/10/29 02:55:15;;;;;;;23.38;14.35;;;;;;;;;;5019460;28;20190;-71
2021/10/29 02:57:41;;;;;;;23.37;14.30;;;;;;;;;;5019948;28;20203;-72
2021/10/29 03:00:10;;;;;;;22.08;13.40;;;;;;;;;;5011603;28;20571;-71
2021/10/29 03:02:36;;;;;;;19.85;13.38;;;;;;;;;;5019718;28;20252;-71
2021/10/29 03:05:02;;;;;;;23.63;14.40;;;;;;;;;;5011124;28;20183;-73
2021/10/29 03:07:28;;;;;;;22.70;12.97;;;;;;;;;;5020876;28;20206;-72
2021/10/29 03:09:54;;;;;;;23.73;13.73;;;;;;;;;;5009197;28;20640;-72
2021/10/29 03:12:19;;;;;;;23.33;12.82;;;;;;;;;;5019428;28;20272;-72
2021/10/29 03:14:45;;;;;;;20.98;12.57;;;;;;;;;;5010333;28;20229;-72
2021/10/29 03:17:10;;;;;;;19.52;12.52;;;;;;;;;;5016453;28;20197;-72
2021/10/29 03:19:36;;;;;;;21.20;13.30;;;;;;;;;;5010581;28;20634;-72
2021/10/29 03:22:02;;;;;;;18.55;12.45;;;;;;;;;;5019747;28;20248;-72
2021/10/29 03:24:27;;;;;;;22.40;12.27;;;;;;;;;;5009841;28;20285;-72
2021/10/29 03:26:52;;;;;;;19.43;12.13;;;;;;;;;;5015784;28;20292;-72
2021/10/29 03:29:18;;;;;;;18.67;11.75;;;;;;;;;;5017143;28;20233;-72
2021/10/29 03:31:43;;;;;;;19.73;11.68;;;;;;;;;;5009415;28;20273;-72
2021/10/29 03:34:08;;;;;;;17.05;11.52;;;;;;;;;;5017777;28;20682;-72
2021/10/29 03:36:34;;;;;;;16.75;11.43;;;;;;;;;;5013241;28;20196;-72
2021/10/29 03:39:06;;;;;;;18.83;11.13;;;;;;;;;;5017156;28;20204;-72
2021/10/29 03:41:34;;;;;;;22.83;12.25;;;;;;;;;;5009237;28;20213;-72
2021/10/29 03:44:15;;;;;;;20.10;10.75;;;;;;;;;;5014667;28;20634;-73
2021/10/29 03:46:41;;;;;;;19.75;11.45;;;;;;;;;;5008274;28;20508;-72
2021/10/29 03:49:21;;;;;;;17.80;11.27;;;;;;;;;;5018151;28;20273;-72
2021/10/29 03:51:51;;;;;;;17.77;11.13;;;;;;;;;;5009122;28;20185;-72
2021/10/29 03:54:19;;;;;;;14.20;9.93;;;;;;;;;;5017932;28;20274;-72
2021/10/29 03:56:53;;;;;;;23.23;11.68;;;;;;;;;;5010660;28;20205;-72
2021/10/29 03:59:18;;;;;;;19.02;11.70;;;;;;;;;;5015282;28;20194;-72
2021/10/29 04:01:44;;;;;;;21.73;11.52;;;;;;;;;;5009779;28;23384;-73
2021/10/29 04:04:09;;;;;;;16.60;10.60;;;;;;;;;;5014997;28;20822;-73
2021/10/29 04:06:35;;;;;;;18.00;10.98;;;;;;;;;;5010132;28;20218;-72
2021/10/29 04:09:00;;;;;;;20.63;10.63;;;;;;;;;;5015339;28;20744;-72
2021/10/29 04:11:26;;;;;;;15.65;10.95;;;;;;;;;;5018421;28;20313;-73
2021/10/29 04:13:53;;;;;;;14.27;10.85;;;;;;;;;;5007564;28;20221;-72
2021/10/29 04:16:19;;;;;;;15.20;10.32;;;;;;;;;;5017589;28;20202;-72
2021/10/29 04:18:45;;;;;;;17.05;10.35;;;;;;;;;;5006002;28;20621;-73
2021/10/29 04:21:10;;;;;;;15.75;9.95;;;;;;;;;;5017745;28;20189;-74
2021/10/29 04:23:35;;;;;;;13.40;10.10;;;;;;;;;;5008387;28;20190;-72
2021/10/29 04:26:02;;;;;;;17.23;10.95;;;;;;;;;;5018634;28;20220;-72
2021/10/29 04:28:27;;;;;;;16.77;9.82;;;;;;;;;;5008876;28;21404;-72
2021/10/29 04:30:54;;;;;;;16.58;9.93;;;;;;;;;;5019679;28;20312;-72
2021/10/29 04:33:19;;;;;;;19.58;11.02;;;;;;;;;;5003958;28;20214;-72
2021/10/29 04:35:50;;;;;;;14.48;9.45;;;;;;;;;;5019179;28;20731;-72
2021/10/29 04:38:15;;;;;;;16.42;10.38;;;;;;;;;;5005341;28;20729;-72
2021/10/29 04:40:42;;;;;;;17.45;10.07;;;;;;;;;;5018923;28;21115;-73
2021/10/29 04:43:09;;;;;;;19.15;10.45;;;;;;;;;;5015086;28;20228;-72
2021/10/29 04:45:35;;;;;;;17.20;9.38;;;;;;;;;;5009335;28;20205;-72
2021/10/29 04:48:01;;;;;;;14.82;8.80;;;;;;;;;;5017804;28;20798;-73
2021/10/29 04:50:27;;;;;;;17.05;9.52;;;;;;;;;;5008413;28;20201;-72
2021/10/29 04:52:53;;;;;;;14.73;9.30;;;;;;;;;;5016097;28;20194;-72
2021/10/29 04:55:19;;;;;;;16.48;9.77;;;;;;;;;;5005126;28;20201;-72
2021/10/29 04:57:44;;;;;;;13.32;9.40;;;;;;;;;;5017664;28;20540;-72
2021/10/29 05:00:11;;;;;;;13.48;9.13;;;;;;;;;;5010241;28;20189;-72
2021/10/29 05:02:37;;;;;;;18.33;9.18;;;;;;;;;;5014037;28;20205;-72
2021/10/29 05:05:04;;;;;;;15.55;9.73;;;;;;;;;;5011009;28;20661;-72
2021/10/29 05:07:30;;;;;;;17.17;9.80;;;;;;;;;;5018231;28;20234;-72
2021/10/29 05:09:56;;;;;;;13.18;8.70;;;;;;;;;;5011475;28;20241;-72
2021/10/29 05:12:22;;;;;;;14.25;9.05;;;;;;;;;;5021692;28;20190;-71
2021/10/29 05:14:47;;;;;;;14.32;8.85;;;;;;;;;;5019758;28;20231;-73
2021/10/29 05:17:13;;;;;;;15.45;8.82;;;;;;;;;;5012465;28;20221;-73
2021/10/29 05:19:39;;;;;;;15.85;9.02;;;;;;;;;;5021727;28;20229;-73
2021/10/29 05:22:04;;;;;;;11.73;8.50;;;;;;;;;;5013240;28;20679;-73
2021/10/29 05:24:30;;;;;;;13.55;8.45;;;;;;;;;;5020057;28;20303;-73
2021/10/29 05:26:55;;;;;;;12.35;8.85;;;;;;;;;;5013919;28;20233;-73
2021/10/29 05:29:20;;;;;;;17.38;8.13;;;;;;;;;;5020733;28;20182;-72
2021/10/29 05:31:46;;;;;;;13.40;8.40;;;;;;;;;;5011888;28;20333;-73
2021/10/29 05:34:11;;;;;;;15.80;8.73;;;;;;;;;;5020195;28;20222;-73
2021/10/29 05:36:37;;;;;;;16.80;8.77;;;;;;;;;;5011753;28;20186;-73
2021/10/29 05:39:04;;;;;;;13.55;8.50;;;;;;;;;;5014704;28;20214;-73
2021/10/29 05:41:29;;;;;;;12.80;8.60;;;;;;;;;;5015545;28;20178;-73
2021/10/29 05:43:55;;;;;;;14.70;8.00;;;;;;;;;;5017893;28;20190;-73
2021/10/29 05:46:23;;;;;;;12.50;8.25;;;;;;;;;;5019620;28;20322;-73
2021/10/29 05:48:48;;;;;;;11.48;7.93;;;;;;;;;;5010299;28;20669;-73
2021/10/29 05:51:14;;;;;;;15.88;8.55;;;;;;;;;;5020003;28;20189;-72
2021/10/29 05:54:36;;;;;;;14.95;8.70;;;;;;;;;;5012247;28;20305;-73
2021/10/29 05:56:26;;;;;;;17.30;9.13;;;;;;;;;;5018382;28;20228;-72
2021/10/29 05:58:51;;;;;;;15.35;8.90;;;;;;;;;;5011799;28;20197;-73
2021/10/29 06:01:16;;;;;;;18.00;9.90;;;;;;;;;;5018975;28;20197;-73
2021/10/29 06:03:42;;;;;;;11.60;8.32;;;;;;;;;;5011351;28;20216;-73
2021/10/29 06:06:08;;;;;;;13.45;8.88;;;;;;;;;;5018713;28;20201;-73
2021/10/29 06:08:33;;;;;;;16.88;8.80;;;;;;;;;;5012890;28;20236;-73
2021/10/29 06:10:59;;;;;;;12.55;8.57;;;;;;;;;;5018573;28;20282;-73
2021/10/29 06:13:24;;;;;;;16.30;9.18;;;;;;;;;;5008531;28;20605;-73
2021/10/29 06:15:50;;;;;;;15.25;9.50;;;;;;;;;;5018285;28;20664;-74
2021/10/29 06:18:24;;;;;;;14.20;9.07;;;;;;;;;;5018405;28;20673;-73
2021/10/29 06:20:50;;;;;;;13.80;9.00;;;;;;;;;;5016849;28;20186;-73
2021/10/29 06:23:15;;;;;;;12.07;7.88;;;;;;;;;;5021010;28;20244;-73
2021/10/29 06:25:41;;;;;;;17.38;8.70;;;;;;;;;;5008149;28;20603;-73
2021/10/29 06:28:50;;;;;;;17.70;8.80;;;;;;;;;;5018819;28;20213;-73
2021/10/29 06:30:57;;;;;;;17.52;9.32;;;;;;;;;;5003599;28;20207;-73
2021/10/29 06:33:24;;;;;;;14.02;8.68;;;;;;;;;;5016718;28;20182;-73
2021/10/29 06:35:51;;;;;;;13.68;8.77;;;;;;;;;;5011779;28;20224;-71
2021/10/29 06:38:17;;;;;;;11.88;8.02;;;;;;;;;;5018145;28;20975;-72
2021/10/29 06:40:45;;;;;;;14.27;9.25;;;;;;;;;;5011903;28;20198;-73
2021/10/29 06:43:25;;;;;;;16.92;10.02;;;;;;;;;;5016004;28;20201;-71
2021/10/29 06:59:50;;;;;;;13.23;8.95;;;;;;;;;;5019739;28;21253;-72
2021/10/29 07:05:27;;;;;;;13.48;9.00;;;;;;;;;;5020533;28;20618;-72
2021/10/29 07:40:46;;;;;;;15.10;9.10;;;;;;;;;;5019428;28;20209;-72
2021/10/29 07:43:15;;;;;;;13.65;8.13;;;;;;;;;;5009733;28;20254;-71
2021/10/29 07:45:41;;;;;;;15.02;8.48;;;;;;;;;;5019215;28;20189;-72
2021/10/29 07:48:07;;;;;;;14.57;8.07;;;;;;;;;;5010963;28;20214;-72
2021/10/29 07:50:32;;;;;;;14.32;7.60;;;;;;;;;;5018993;28;20205;-73
2021/10/29 07:52:59;;;;;;;11.65;8.10;;;;;;;;;;5019953;28;20186;-72
2021/10/29 07:55:27;;;;;;;14.30;7.10;;;;;;;;;;5010881;28;20232;-73
2021/10/29 07:57:53;;;;;;;10.77;7.28;;;;;;;;;;5013074;28;20201;-73
2021/10/29 08:00:20;;;;;;;12.90;7.80;;;;;;;;;;5008797;28;20897;-73
2021/10/29 08:02:47;;;;;;;11.38;8.15;;;;;;;;;;5018980;28;20182;-72
2021/10/29 08:05:12;;;;;;;12.43;7.60;;;;;;;;;;5009257;28;20205;-73
2021/10/29 08:07:38;;;;;;;12.32;8.02;;;;;;;;;;5020162;28;20206;-73
2021/10/29 08:10:05;;;;;;;15.15;8.02;;;;;;;;;;5008484;28;20629;-73
2021/10/29 08:12:32;;;;;;;13.80;7.20;;;;;;;;;;5018680;28;20554;-73
2021/10/29 08:14:57;;;;;;;13.93;7.78;;;;;;;;;;5010308;28;20194;-72
2021/10/29 08:17:22;;;;;;;11.98;7.50;;;;;;;;;;5017655;28;20196;-73
2021/10/29 08:19:48;;;;;;;9.10;7.13;;;;;;;;;;5008963;28;20198;-73
2021/10/29 08:22:14;;;;;;;11.45;6.82;;;;;;;;;;5014733;28;20214;-72
2021/10/29 08:24:41;;;;;;;10.15;7.03;;;;;;;;;;5016852;28;20691;-74
2021/10/29 08:27:08;;;;;;;12.45;7.85;;;;;;;;;;5008243;28;20252;-73
2021/10/29 08:29:34;;;;;;;14.68;7.30;;;;;;;;;;5016586;28;21416;-74
2021/10/29 08:32:00;;;;;;;13.57;6.88;;;;;;;;;;5009638;28;20198;-74
2021/10/29 08:34:26;;;;;;;10.35;7.00;;;;;;;;;;5014130;28;20186;-73
2021/10/29 08:36:52;;;;;;;10.27;6.25;;;;;;;;;;5010443;28;20186;-73
2021/10/29 08:39:19;;;;;;;10.90;7.30;;;;;;;;;;5017319;28;20194;-73
2021/10/29 08:41:45;;;;;;;13.18;6.47;;;;;;;;;;5009231;28;20245;-74
2021/10/29 08:44:13;;;;;;;10.75;7.05;;;;;;;;;;5019630;28;20301;-74
2021/10/29 08:46:39;;;;;;;8.43;6.28;;;;;;;;;;5010599;28;20201;-74
2021/10/29 08:49:07;;;;;;;11.25;6.18;;;;;;;;;;5033255;28;20178;-74
2021/10/29 08:51:32;;;;;;;11.07;6.35;;;;;;;;;;5011652;28;20212;-73
2021/10/29 08:53:58;;;;;;;11.68;6.38;;;;;;;;;;5019813;28;20186;-74
2021/10/29 08:56:27;;;;;;;11.88;6.25;;;;;;;;;;5020032;28;20302;-73
2021/10/29 08:59:15;;;;;;;10.55;6.82;;;;;;;;;;5009575;28;20196;-72
2021/10/29 09:02:05;;;;;;;10.20;6.10;;;;;;;;;;5020956;28;20194;-74
2021/10/29 09:07:17;;;;;;;11.60;6.30;;;;;;;;;;5020196;28;20324;-74
2021/10/29 09:32:24;;;;;;;10.40;5.82;;;;;;;;;;5020921;28;20189;-73
2021/10/29 09:35:07;;;;;;;13.18;5.85;;;;;;;;;;5010780;28;20630;-72
2021/10/29 09:37:36;;;;;;;9.15;5.38;;;;;;;;;;5013167;28;20222;-73
2021/10/29 09:40:11;;;;;;;9.40;5.57;;;;;;;;;;5010548;28;21297;-73
2021/10/29 09:42:38;;;;;;;9.77;5.75;;;;;;;;;;5019597;28;20403;-72
2021/10/29 09:45:19;;;;;;;8.75;5.20;;;;;;;;;;5011352;28;20642;-73
2021/10/29 09:47:52;;;;;;;7.88;5.53;;;;;;;;;;5029362;28;20206;-74
2021/10/29 09:50:25;;;;;;;6.55;4.63;;;;;;;;;;5008219;28;20198;-73
2021/10/29 09:53:11;;;;;;;11.27;5.40;;;;;;;;;;5017547;28;20216;-73
2021/10/29 09:55:51;;;;;;;9.98;5.20;;;;;;;;;;5008780;28;20186;-73
2021/10/29 09:58:18;;;;;;;8.48;5.10;;;;;;;;;;5016427;28;20184;-74
2021/10/29 10:00:44;;;;;;;9.98;4.90;;;;;;;;;;5004287;28;20514;-75
2021/10/29 10:03:10;;;;;;;7.65;4.88;;;;;;;;;;5018872;28;20194;-72
2021/10/29 10:05:37;;;;;;;7.78;4.93;;;;;;;;;;5008275;28;20198;-74
2021/10/29 10:08:04;;;;;;;6.82;4.95;;;;;;;;;;5014300;28;20216;-73
2021/10/29 10:10:31;;;;;;;8.63;4.90;;;;;;;;;;5016301;28;20233;-74
2021/10/29 10:12:58;;;;;;;7.57;5.28;;;;;;;;;;5010251;28;20205;-74
2021/10/29 10:15:25;;;;;;;8.45;5.03;;;;;;;;;;5017564;28;20212;-74
2021/10/29 10:17:53;;;;;;;10.80;5.10;;;;;;;;;;5009536;28;20252;-74
2021/10/29 10:20:19;;;;;;;9.77;4.65;;;;;;;;;;5017662;28;20269;-74
2021/10/29 10:22:48;;;;;;;9.77;4.70;;;;;;;;;;5010288;28;20217;-74
2021/10/29 10:28:20;;;;;;;7.85;4.32;;;;;;;;;;5010286;28;20218;-75
2021/10/29 10:45:03;;;;;;;8.25;4.35;;;;;;;;;;5015961;28;20251;-72
2021/10/29 10:47:35;;;;;;;8.43;4.50;;;;;;;;;;5014481;28;22211;-73
2021/10/29 10:50:22;;;;;;;9.02;4.78;;;;;;;;;;5014255;28;20837;-72
2021/10/29 10:53:08;;;;;;;9.48;4.15;;;;;;;;;;5016290;28;20194;-73
2021/10/29 10:59:05;;;;;;;6.50;3.95;;;;;;;;;;5008092;28;20739;-71
2021/10/29 11:04:42;;;;;;;10.05;4.20;;;;;;;;;;5005568;28;20728;-72
2021/10/29 11:10:10;;;;;;;6.40;4.13;;;;;;;;;;5005165;28;20214;-73
2021/10/29 11:12:42;;;;;;;8.52;3.88;;;;;;;;;;5009189;28;20292;-71
2021/10/29 11:15:16;;;;;;;8.38;4.47;;;;;;;;;;5010249;28;20534;-74
2021/10/29 11:17:51;;;;;;;9.65;4.57;;;;;;;;;;5016813;28;20350;-73
2021/10/29 11:23:08;;;;;;;8.50;3.90;;;;;;;;;;5017168;28;20509;-74
2021/10/29 11:26:05;;;;;;;6.63;4.05;;;;;;;;;;5008717;28;20197;-75
2021/10/29 11:28:43;;;;;;;5.47;3.83;;;;;;;;;;5017999;28;20624;-73
2021/10/29 11:31:14;;;;;;;8.57;4.35;;;;;;;;;;5008989;28;20190;-74
2021/10/29 11:33:45;;;;;;;8.30;3.83;;;;;;;;;;5018024;28;20194;-73
2021/10/29 11:36:13;;;;;;;5.30;3.85;;;;;;;;;;5010062;28;20501;-74
2021/10/29 11:38:41;;;;;;;6.03;3.80;;;;;;;;;;5017817;28;20586;-75
2021/10/29 11:41:11;;;;;;;7.55;4.65;;;;;;;;;;5009911;28;20513;-74
2021/10/29 11:43:37;;;;;;;6.50;4.10;;;;;;;;;;5027887;28;20298;-74
2021/10/29 11:46:05;;;;;;;7.80;4.43;;;;;;;;;;5010356;28;20653;-74
2021/10/29 11:48:34;;;;;;;8.18;4.15;;;;;;;;;;5017548;28;20198;-72
2021/10/29 11:51:12;;;;;;;5.82;4.10;;;;;;;;;;5013549;28;20208;-71
2021/10/29 11:53:46;;;;;;;6.97;4.35;;;;;;;;;;5013573;28;20181;-74
2021/10/29 12:07:21;;;;;;;6.13;3.70;;;;;;;;;;5010380;28;20300;-74
2021/10/29 12:09:51;;;;;;;7.15;3.97;;;;;;;;;;5020021;28;20214;-74
2021/10/29 12:12:21;;;;;;;4.70;3.53;;;;;;;;;;5008795;28;20182;-74
2021/10/29 12:14:49;;;;;;;6.40;3.70;;;;;;;;;;5009420;28;20189;-73
2021/10/29 12:17:26;;;;;;;5.05;3.47;;;;;;;;;;5019911;28;20542;-73
2021/10/29 12:19:56;;;;;;;10.60;3.78;;;;;;;;;;5018589;28;20198;-73
2021/10/29 12:22:38;;;;;;;5.35;3.63;;;;;;;;;;5020677;28;20202;-74
2021/10/29 12:28:18;;;;;;;8.13;4.00;;;;;;;;;;5012603;28;20218;-73
2021/10/29 12:31:05;;;;;;;6.07;3.53;;;;;;;;;;5019805;28;20192;-73
2021/10/29 13:01:38;;;;;;;8.20;3.28;;;;;;;;;;4977812;28;20285;-73
2021/10/29 13:04:23;;;;;;;6.97;3.17;;;;;;;;;;5019166;28;20197;-72
2021/10/29 13:06:54;;;;;;;8.52;2.80;;;;;;;;;;5010118;28;20672;-73
2021/10/29 13:09:25;;;;;;;5.57;3.10;;;;;;;;;;5017765;28;20261;-74
2021/10/29 13:11:58;;;;;;;6.57;3.15;;;;;;;;;;5010984;28;20332;-74
2021/10/29 13:16:55;;;;;;;6.63;3.20;;;;;;;;;;5012029;28;20702;-73
2021/10/29 13:25:10;;;;;;;6.38;3.03;;;;;;;;;;5020987;28;20253;-73
2021/10/29 13:50:25;;;;;;;5.50;3.22;;;;;;;;;;5012181;28;20661;-73
2021/10/29 13:57:21;;;;;;;9.20;3.83;;;;;;;;;;5017570;28;20210;-71
2021/10/29 14:00:14;;;;;;;8.15;3.95;;;;;;;;;;5012402;28;20287;-74
2021/10/29 14:02:59;;;;;;;6.68;3.03;;;;;;;;;;5021588;28;20170;-73
2021/10/29 14:28:10;;;;;;;5.00;3.45;;;;;;;;;;5011254;28;20225;-71
2021/10/29 14:29:49;;;;;;;7.20;3.55;;;;;;;;;;5011188;28;20325;-73
2021/10/29 14:32:23;;;;;;;6.00;3.10;;;;;;;;;;5013874;28;20206;-72
2021/10/29 14:34:51;;;;;;;4.28;3.15;;;;;;;;;;5011360;28;20194;-72
2021/10/29 14:39:55;;;;;;;6.40;3.10;;;;;;;;;;5018473;28;20689;-71
2021/10/29 14:45:00;;;;;;;4.97;2.83;;;;;;;;;;5020832;28;20179;-73
2021/10/29 15:17:06;;;;;;;7.03;3.17;;;;;;;;;;5013906;28;20305;-72
2021/10/29 15:44:06;;;;;;;6.10;3.30;;;;;;;;;;5003785;28;20650;-72
2021/10/29 15:51:29;;;;;;;6.47;2.92;;;;;;;;;;5015267;28;20515;-72
2021/10/29 15:53:54;;;;;;;6.57;2.90;;;;;;;;;;5016965;28;20189;-72
2021/10/29 15:59:04;;;;;;;5.20;3.15;;;;;;;;;;5016817;28;20593;-72
2021/10/29 16:17:22;;;;;;;5.55;3.60;;;;;;;;;;5006935;28;20284;-72
2021/10/29 16:19:48;;;;;;;6.53;3.60;;;;;;;;;;5016547;28;20190;-72
2021/10/29 16:22:18;;;;;;;10.23;4.03;;;;;;;;;;5000078;28;20217;-71
2021/10/29 16:24:58;;;;;;;5.40;3.80;;;;;;;;;;5016474;28;20625;-71
2021/10/29 16:27:25;;;;;;;7.32;3.55;;;;;;;;;;5008276;28;20267;-72
2021/10/29 16:29:51;;;;;;;7.35;4.47;;;;;;;;;;5010627;28;20285;-72
2021/10/29 16:32:28;;;;;;;8.50;3.88;;;;;;;;;;5006086;28;20280;-71
2021/10/29 16:34:53;;;;;;;6.55;3.10;;;;;;;;;;5014664;28;20189;-71
2021/10/29 16:37:19;;;;;;;5.70;3.28;;;;;;;;;;5005668;28;20186;-72
2021/10/29 16:39:44;;;;;;;8.07;3.67;;;;;;;;;;5018632;28;20638;-71
2021/10/29 16:42:09;;;;;;;6.57;3.30;;;;;;;;;;5007136;28;20312;-71
2021/10/29 16:44:35;;;;;;;7.55;3.20;;;;;;;;;;5015226;28;20236;-73
2021/10/29 16:47:00;;;;;;;5.20;3.05;;;;;;;;;;5010002;28;20202;-72
2021/10/29 16:49:25;;;;;;;5.72;3.08;;;;;;;;;;5007893;28;20203;-71
2021/10/29 16:51:51;;;;;;;6.15;3.25;;;;;;;;;;5015823;28;20179;-71
2021/10/29 16:54:16;;;;;;;4.63;3.40;;;;;;;;;;5003372;28;20205;-72
2021/10/29 16:56:41;;;;;;;7.28;3.42;;;;;;;;;;5015623;28;20392;-71
2021/10/29 16:59:07;;;;;;;7.80;3.30;;;;;;;;;;5005053;28;20642;-71
2021/10/29 17:01:34;;;;;;;8.68;3.55;;;;;;;;;;5017322;28;20521;-71
2021/10/29 17:03:59;;;;;;;4.43;2.90;;;;;;;;;;5012021;28;20553;-71
2021/10/29 17:06:24;;;;;;;6.57;3.20;;;;;;;;;;5022604;28;20190;-71
2021/10/29 17:08:50;;;;;;;6.45;3.13;;;;;;;;;;5009886;28;20206;-71
2021/10/29 17:11:15;;;;;;;5.82;3.15;;;;;;;;;;5018201;28;20260;-71
2021/10/29 17:13:41;;;;;;;5.63;3.58;;;;;;;;;;5009305;28;20787;-72
2021/10/29 17:16:07;;;;;;;7.07;3.83;;;;;;;;;;5020623;28;20556;-72
2021/10/29 17:18:32;;;;;;;5.55;3.40;;;;;;;;;;5018820;28;20190;-71
2021/10/29 17:21:00;;;;;;;7.60;3.22;;;;;;;;;;5011600;28;20544;-71
2021/10/29 17:23:26;;;;;;;8.18;3.25;;;;;;;;;;5018496;28;20198;-71
2021/10/29 17:25:51;;;;;;;5.60;3.80;;;;;;;;;;5001590;28;20205;-72
2021/10/29 17:28:16;;;;;;;10.25;3.35;;;;;;;;;;5015340;28;20194;-70
2021/10/29 17:30:42;;;;;;;6.32;3.40;;;;;;;;;;5010520;28;20200;-72
2021/10/29 17:33:08;;;;;;;5.75;3.20;;;;;;;;;;5019109;28;20190;-72
2021/10/29 17:35:33;;;;;;;4.72;3.20;;;;;;;;;;5009152;28;20533;-72
2021/10/29 17:37:58;;;;;;;5.18;3.25;;;;;;;;;;5017681;28;20253;-71
2021/10/29 17:40:24;;;;;;;4.80;3.17;;;;;;;;;;5008743;28;20182;-72
2021/10/29 17:42:49;;;;;;;4.20;2.92;;;;;;;;;;5015427;28;20232;-72
2021/10/29 17:45:16;;;;;;;7.88;3.78;;;;;;;;;;5009320;28;20724;-72
2021/10/29 17:47:42;;;;;;;6.25;3.63;;;;;;;;;;5017980;28;20225;-72
2021/10/29 17:50:08;;;;;;;6.22;3.55;;;;;;;;;;5016836;28;20558;-72
2021/10/29 17:52:33;;;;;;;8.27;4.03;;;;;;;;;;5006970;28;20182;-73
2021/10/29 17:55:00;;;;;;;5.22;3.35;;;;;;;;;;5016508;28;20208;-72
2021/10/29 17:57:26;;;;;;;6.35;3.60;;;;;;;;;;5003910;28;20206;-72
2021/10/29 17:59:53;;;;;;;8.98;3.50;;;;;;;;;;5014942;28;20190;-73
2021/10/29 18:02:22;;;;;;;5.30;3.42;;;;;;;;;;5013286;28;20563;-73
2021/10/29 18:04:48;;;;;;;12.65;4.63;;;;;;;;;;5017191;28;20709;-72
2021/10/29 18:07:14;;;;;;;10.23;5.03;;;;;;;;;;5005917;28;20206;-71
2021/10/29 18:09:40;;;;;;;10.40;5.03;;;;;;;;;;5017108;28;20309;-72
2021/10/29 18:12:07;;;;;;;10.75;5.60;;;;;;;;;;5009973;28;20560;-73
2021/10/29 18:14:34;;;;;;;7.97;5.70;;;;;;;;;;5018693;28;20262;-74
2021/10/29 18:17:00;;;;;;;10.20;6.60;;;;;;;;;;5010816;28;20194;-75
2021/10/29 18:19:25;;;;;;;9.95;6.97;;;;;;;;;;5017454;28;20194;-76
2021/10/29 18:21:50;;;;;;;11.48;7.20;;;;;;;;;;5014547;28;20189;-74
2021/10/29 18:24:16;;;;;;;11.90;6.95;;;;;;;;;;5001488;28;20190;-74
2021/10/29 18:26:41;;;;;;;13.60;8.02;;;;;;;;;;5018837;28;20236;-74
2021/10/29 18:29:08;;;;;;;15.60;9.68;;;;;;;;;;5008046;28;20262;-76
2021/10/29 18:31:35;;;;;;;15.68;9.75;;;;;;;;;;5010651;28;20190;-73
2021/10/29 18:34:01;;;;;;;17.08;10.15;;;;;;;;;;5007461;28;20198;-73
2021/10/29 18:36:27;;;;;;;13.38;7.85;;;;;;;;;;5014957;28;20197;-73
2021/10/29 18:38:53;;;;;;;11.65;8.65;;;;;;;;;;5000083;28;20185;-73
2021/10/29 18:41:19;;;;;;;12.45;8.90;;;;;;;;;;5016212;28;20198;-71
2021/10/29 18:43:45;;;;;;;13.00;8.63;;;;;;;;;;5001301;28;20194;-71
2021/10/29 18:46:12;;;;;;;11.88;9.05;;;;;;;;;;5015593;28;20269;-72
2021/10/29 18:48:37;;;;;;;13.98;9.68;;;;;;;;;;5008580;28;20305;-73
2021/10/29 18:51:03;;;;;;;12.32;9.57;;;;;;;;;;5018500;28;20245;-73
2021/10/29 18:53:28;;;;;;;13.07;9.60;;;;;;;;;;5017669;28;20267;-76
2021/10/29 18:55:53;;;;;;;11.65;9.57;;;;;;;;;;5008513;28;20223;-73
2021/10/29 18:58:19;;;;;;;13.45;9.77;;;;;;;;;;5018548;28;20665;-73
2021/10/29 19:00:44;;;;;;;12.23;10.65;;;;;;;;;;5006450;28;20223;-72
2021/10/29 19:03:10;;;;;;;13.45;10.95;;;;;;;;;;5015152;28;20178;-72
2021/10/29 19:05:36;;;;;;;14.05;11.65;;;;;;;;;;5004409;28;20650;-72
2021/10/29 19:08:03;;;;;;;14.68;10.73;;;;;;;;;;5013224;28;20272;-72
2021/10/29 19:10:29;;;;;;;12.68;10.05;;;;;;;;;;5005637;28;20229;-73
2021/10/29 19:12:55;;;;;;;17.48;10.98;;;;;;;;;;5014120;28;20194;-74
2021/10/29 19:15:20;;;;;;;16.15;9.95;;;;;;;;;;5010641;28;20244;-73
2021/10/29 19:17:46;;;;;;;14.10;10.50;;;;;;;;;;5009869;28;20178;-73